sensor_id;sensor_type;location;lat;lon;timestamp;temperature;humidity
24254;DHT22;12381;51.152;4.172;2022-07-29T00:01:57;20.70;95.10
24254;DHT22;12381;51.152;4.172;2022-07-29T00:04:23;20.70;95.00
24254;DHT22;12381;51.152;4.172;2022-07-29T00:06:48;20.70;95.20
24254;DHT22;12381;51.152;4.172;2022-07-29T00:09:14;20.70;95.30
24254;DHT22;12381;51.152;4.172;2022-07-29T00:11:40;20.60;95.10
24254;DHT22;12381;51.152;4.172;2022-07-29T00:14:05;20.60;95.10
24254;DHT22;12381;51.152;4.172;2022-07-29T00:16:31;20.70;95.20
24254;DHT22;12381;51.152;4.172;2022-07-29T00:18:57;20.60;95.10
24254;DHT22;12381;51.152;4.172;2022-07-29T00:21:22;20.60;95.20
24254;DHT22;12381;51.152;4.172;2022-07-29T00:23:48;20.60;94.90
24254;DHT22;12381;51.152;4.172;2022-07-29T00:26:14;20.60;94.90
24254;DHT22;12381;51.152;4.172;2022-07-29T00:28:39;20.60;95.00
24254;DHT22;12381;51.152;4.172;2022-07-29T00:31:05;20.60;95.00
24254;DHT22;12381;51.152;4.172;2022-07-29T00:33:30;20.60;95.10
24254;DHT22;12381;51.152;4.172;2022-07-29T00:35:56;20.50;95.10
24254;DHT22;12381;51.152;4.172;2022-07-29T00:38:22;20.50;95.00
24254;DHT22;12381;51.152;4.172;2022-07-29T00:40:48;20.60;95.00
24254;DHT22;12381;51.152;4.172;2022-07-29T00:43:14;20.60;94.90
24254;DHT22;12381;51.152;4.172;2022-07-29T00:45:41;20.50;95.20
24254;DHT22;12381;51.152;4.172;2022-07-29T00:48:06;20.50;94.90
24254;DHT22;12381;51.152;4.172;2022-07-29T00:50:34;20.60;95.00
24254;DHT22;12381;51.152;4.172;2022-07-29T00:53:00;20.60;95.00
24254;DHT22;12381;51.152;4.172;2022-07-29T00:55:27;20.60;94.80
24254;DHT22;12381;51.152;4.172;2022-07-29T00:57:55;20.70;94.60
24254;DHT22;12381;51.152;4.172;2022-07-29T01:00:23;20.60;94.80
24254;DHT22;12381;51.152;4.172;2022-07-29T01:02:48;20.60;94.70
24254;DHT22;12381;51.152;4.172;2022-07-29T01:05:20;20.50;94.90
24254;DHT22;12381;51.152;4.172;2022-07-29T01:07:48;20.50;95.20
24254;DHT22;12381;51.152;4.172;2022-07-29T01:10:15;20.50;95.00
24254;DHT22;12381;51.152;4.172;2022-07-29T01:12:43;20.40;95.10
24254;DHT22;12381;51.152;4.172;2022-07-29T01:15:10;20.40;95.40
24254;DHT22;12381;51.152;4.172;2022-07-29T01:26:17;20.30;95.50
24254;DHT22;12381;51.152;4.172;2022-07-29T01:32:09;20.30;95.80
24254;DHT22;12381;51.152;4.172;2022-07-29T01:34:53;20.30;95.90
24254;DHT22;12381;51.152;4.172;2022-07-29T01:39:47;20.20;96.10
24254;DHT22;12381;51.152;4.172;2022-07-29T01:45:03;20.20;96.20
24254;DHT22;12381;51.152;4.172;2022-07-29T01:47:48;20.10;96.20
24254;DHT22;12381;51.152;4.172;2022-07-29T01:50:17;20.10;96.40
24254;DHT22;12381;51.152;4.172;2022-07-29T01:52:56;20.00;96.30
24254;DHT22;12381;51.152;4.172;2022-07-29T01:55:27;20.00;96.30
24254;DHT22;12381;51.152;4.172;2022-07-29T01:57:54;20.00;96.30
24254;DHT22;12381;51.152;4.172;2022-07-29T02:00:22;20.00;96.40
24254;DHT22;12381;51.152;4.172;2022-07-29T02:02:49;20.00;96.50
24254;DHT22;12381;51.152;4.172;2022-07-29T02:05:17;20.00;96.40
24254;DHT22;12381;51.152;4.172;2022-07-29T02:07:44;20.00;96.30
24254;DHT22;12381;51.152;4.172;2022-07-29T02:10:12;19.90;96.30
24254;DHT22;12381;51.152;4.172;2022-07-29T02:12:39;19.90;96.40
24254;DHT22;12381;51.152;4.172;2022-07-29T02:15:06;19.80;96.30
24254;DHT22;12381;51.152;4.172;2022-07-29T02:17:37;19.80;96.30
24254;DHT22;12381;51.152;4.172;2022-07-29T02:20:05;19.80;96.30
24254;DHT22;12381;51.152;4.172;2022-07-29T02:22:33;19.80;96.50
24254;DHT22;12381;51.152;4.172;2022-07-29T02:24:59;19.80;96.30
24254;DHT22;12381;51.152;4.172;2022-07-29T02:27:27;19.80;96.30
24254;DHT22;12381;51.152;4.172;2022-07-29T02:29:54;19.80;96.50
24254;DHT22;12381;51.152;4.172;2022-07-29T02:32:21;19.70;96.40
24254;DHT22;12381;51.152;4.172;2022-07-29T02:34:49;19.70;96.40
24254;DHT22;12381;51.152;4.172;2022-07-29T02:37:16;19.80;96.50
24254;DHT22;12381;51.152;4.172;2022-07-29T02:39:44;19.80;96.30
24254;DHT22;12381;51.152;4.172;2022-07-29T02:42:15;19.70;96.50
24254;DHT22;12381;51.152;4.172;2022-07-29T02:44:42;19.70;96.40
24254;DHT22;12381;51.152;4.172;2022-07-29T02:47:18;19.60;96.50
24254;DHT22;12381;51.152;4.172;2022-07-29T02:50:08;19.60;96.40
24254;DHT22;12381;51.152;4.172;2022-07-29T02:52:48;19.60;96.40
24254;DHT22;12381;51.152;4.172;2022-07-29T02:55:25;19.60;96.50
24254;DHT22;12381;51.152;4.172;2022-07-29T02:57:59;19.50;96.60
24254;DHT22;12381;51.152;4.172;2022-07-29T03:00:29;19.40;96.60
24254;DHT22;12381;51.152;4.172;2022-07-29T03:02:58;19.40;96.70
24254;DHT22;12381;51.152;4.172;2022-07-29T03:05:24;19.40;96.70
24254;DHT22;12381;51.152;4.172;2022-07-29T03:08:05;19.30;96.90
24254;DHT22;12381;51.152;4.172;2022-07-29T03:10:32;19.30;96.80
24254;DHT22;12381;51.152;4.172;2022-07-29T03:12:58;19.30;97.00
24254;DHT22;12381;51.152;4.172;2022-07-29T03:15:25;19.30;96.80
24254;DHT22;12381;51.152;4.172;2022-07-29T03:17:52;19.30;96.80
24254;DHT22;12381;51.152;4.172;2022-07-29T03:20:18;19.30;96.90
24254;DHT22;12381;51.152;4.172;2022-07-29T03:22:44;19.20;97.00
24254;DHT22;12381;51.152;4.172;2022-07-29T03:25:17;19.20;97.10
24254;DHT22;12381;51.152;4.172;2022-07-29T03:27:43;19.10;97.00
24254;DHT22;12381;51.152;4.172;2022-07-29T03:30:11;19.10;97.00
24254;DHT22;12381;51.152;4.172;2022-07-29T03:32:37;19.10;97.30
24254;DHT22;12381;51.152;4.172;2022-07-29T03:35:03;19.10;97.20
24254;DHT22;12381;51.152;4.172;2022-07-29T03:37:29;19.10;97.10
24254;DHT22;12381;51.152;4.172;2022-07-29T03:39:57;19.10;97.20
24254;DHT22;12381;51.152;4.172;2022-07-29T03:42:25;19.00;97.40
24254;DHT22;12381;51.152;4.172;2022-07-29T03:44:52;18.90;97.50
24254;DHT22;12381;51.152;4.172;2022-07-29T03:47:23;18.90;97.70
24254;DHT22;12381;51.152;4.172;2022-07-29T03:49:52;18.90;97.60
24254;DHT22;12381;51.152;4.172;2022-07-29T03:52:20;18.90;97.60
24254;DHT22;12381;51.152;4.172;2022-07-29T03:54:46;18.90;97.50
24254;DHT22;12381;51.152;4.172;2022-07-29T03:57:13;18.80;97.60
24254;DHT22;12381;51.152;4.172;2022-07-29T03:59:40;18.80;97.60
24254;DHT22;12381;51.152;4.172;2022-07-29T04:02:09;18.80;97.80
24254;DHT22;12381;51.152;4.172;2022-07-29T04:04:36;18.80;98.00
24254;DHT22;12381;51.152;4.172;2022-07-29T04:07:02;18.80;98.00
24254;DHT22;12381;51.152;4.172;2022-07-29T04:09:28;18.70;97.90
24254;DHT22;12381;51.152;4.172;2022-07-29T04:11:54;18.70;98.00
24254;DHT22;12381;51.152;4.172;2022-07-29T04:14:20;18.70;98.00
24254;DHT22;12381;51.152;4.172;2022-07-29T04:16:46;18.60;98.30
24254;DHT22;12381;51.152;4.172;2022-07-29T04:19:11;18.60;98.20
24254;DHT22;12381;51.152;4.172;2022-07-29T04:21:38;18.60;98.20
24254;DHT22;12381;51.152;4.172;2022-07-29T04:24:05;18.60;98.20
24254;DHT22;12381;51.152;4.172;2022-07-29T04:26:30;18.70;98.20
24254;DHT22;12381;51.152;4.172;2022-07-29T04:28:56;18.60;98.10
24254;DHT22;12381;51.152;4.172;2022-07-29T04:31:22;18.50;98.20
24254;DHT22;12381;51.152;4.172;2022-07-29T04:33:47;18.50;98.30
24254;DHT22;12381;51.152;4.172;2022-07-29T04:36:13;18.60;98.40
24254;DHT22;12381;51.152;4.172;2022-07-29T04:38:39;18.50;98.60
24254;DHT22;12381;51.152;4.172;2022-07-29T04:41:05;18.60;98.50
24254;DHT22;12381;51.152;4.172;2022-07-29T04:43:32;18.50;98.50
24254;DHT22;12381;51.152;4.172;2022-07-29T04:45:59;18.50;98.60
24254;DHT22;12381;51.152;4.172;2022-07-29T04:48:25;18.40;98.70
24254;DHT22;12381;51.152;4.172;2022-07-29T04:50:51;18.50;98.60
24254;DHT22;12381;51.152;4.172;2022-07-29T04:53:17;18.60;98.60
24254;DHT22;12381;51.152;4.172;2022-07-29T04:55:43;18.50;98.70
24254;DHT22;12381;51.152;4.172;2022-07-29T04:58:09;18.50;98.80
24254;DHT22;12381;51.152;4.172;2022-07-29T05:00:34;18.40;98.90
24254;DHT22;12381;51.152;4.172;2022-07-29T05:03:00;18.40;98.90
24254;DHT22;12381;51.152;4.172;2022-07-29T05:05:26;18.40;99.10
24254;DHT22;12381;51.152;4.172;2022-07-29T05:07:51;18.50;99.00
24254;DHT22;12381;51.152;4.172;2022-07-29T05:10:17;18.40;99.20
24254;DHT22;12381;51.152;4.172;2022-07-29T05:12:43;18.40;99.20
24254;DHT22;12381;51.152;4.172;2022-07-29T05:15:09;18.50;99.30
24254;DHT22;12381;51.152;4.172;2022-07-29T05:17:34;18.40;99.40
24254;DHT22;12381;51.152;4.172;2022-07-29T05:20:00;18.40;99.40
24254;DHT22;12381;51.152;4.172;2022-07-29T05:22:26;18.40;99.50
24254;DHT22;12381;51.152;4.172;2022-07-29T05:24:52;18.40;99.70
24254;DHT22;12381;51.152;4.172;2022-07-29T05:27:18;18.40;99.70
24254;DHT22;12381;51.152;4.172;2022-07-29T05:29:44;18.40;99.70
24254;DHT22;12381;51.152;4.172;2022-07-29T05:32:10;18.50;99.90
24254;DHT22;12381;51.152;4.172;2022-07-29T05:34:35;18.50;99.80
24254;DHT22;12381;51.152;4.172;2022-07-29T05:37:01;18.60;99.90
24254;DHT22;12381;51.152;4.172;2022-07-29T05:39:27;18.60;99.70
24254;DHT22;12381;51.152;4.172;2022-07-29T05:41:52;18.70;99.70
24254;DHT22;12381;51.152;4.172;2022-07-29T05:44:18;18.70;99.90
24254;DHT22;12381;51.152;4.172;2022-07-29T05:46:44;18.80;99.90
24254;DHT22;12381;51.152;4.172;2022-07-29T05:49:09;18.80;99.80
24254;DHT22;12381;51.152;4.172;2022-07-29T05:51:35;18.90;99.90
24254;DHT22;12381;51.152;4.172;2022-07-29T05:54:01;19.00;99.90
24254;DHT22;12381;51.152;4.172;2022-07-29T05:56:27;19.10;99.80
24254;DHT22;12381;51.152;4.172;2022-07-29T05:58:53;19.20;99.60
24254;DHT22;12381;51.152;4.172;2022-07-29T06:01:19;19.30;99.70
24254;DHT22;12381;51.152;4.172;2022-07-29T06:03:44;19.30;99.80
24254;DHT22;12381;51.152;4.172;2022-07-29T06:06:10;19.40;99.90
24254;DHT22;12381;51.152;4.172;2022-07-29T06:08:37;19.40;99.80
24254;DHT22;12381;51.152;4.172;2022-07-29T06:11:04;19.40;99.90
24254;DHT22;12381;51.152;4.172;2022-07-29T06:13:30;19.30;99.90
24254;DHT22;12381;51.152;4.172;2022-07-29T06:15:56;19.20;99.90
24254;DHT22;12381;51.152;4.172;2022-07-29T06:18:22;19.20;99.90
24254;DHT22;12381;51.152;4.172;2022-07-29T06:20:50;19.20;99.90
24254;DHT22;12381;51.152;4.172;2022-07-29T06:23:16;19.20;99.90
24254;DHT22;12381;51.152;4.172;2022-07-29T06:25:42;19.30;99.90
24254;DHT22;12381;51.152;4.172;2022-07-29T06:28:08;19.30;99.80
24254;DHT22;12381;51.152;4.172;2022-07-29T06:30:34;19.40;99.90
24254;DHT22;12381;51.152;4.172;2022-07-29T06:32:59;19.40;99.90
24254;DHT22;12381;51.152;4.172;2022-07-29T06:35:27;19.50;99.90
24254;DHT22;12381;51.152;4.172;2022-07-29T06:37:53;19.60;99.90
24254;DHT22;12381;51.152;4.172;2022-07-29T06:40:19;19.60;99.60
24254;DHT22;12381;51.152;4.172;2022-07-29T06:43:03;19.70;99.40
24254;DHT22;12381;51.152;4.172;2022-07-29T06:45:28;19.80;99.50
24254;DHT22;12381;51.152;4.172;2022-07-29T06:47:54;19.80;99.30
24254;DHT22;12381;51.152;4.172;2022-07-29T06:50:20;19.80;99.40
24254;DHT22;12381;51.152;4.172;2022-07-29T06:52:47;19.90;99.20
24254;DHT22;12381;51.152;4.172;2022-07-29T06:55:13;20.10;99.20
24254;DHT22;12381;51.152;4.172;2022-07-29T06:57:39;20.10;98.80
24254;DHT22;12381;51.152;4.172;2022-07-29T07:00:05;20.10;98.80
24254;DHT22;12381;51.152;4.172;2022-07-29T07:02:31;20.10;98.90
24254;DHT22;12381;51.152;4.172;2022-07-29T07:04:57;20.10;99.00
24254;DHT22;12381;51.152;4.172;2022-07-29T07:07:24;20.10;99.00
24254;DHT22;12381;51.152;4.172;2022-07-29T07:09:50;20.20;99.10
24254;DHT22;12381;51.152;4.172;2022-07-29T07:12:16;20.30;99.40
24254;DHT22;12381;51.152;4.172;2022-07-29T07:14:41;20.30;99.40
24254;DHT22;12381;51.152;4.172;2022-07-29T07:17:07;20.50;99.30
24254;DHT22;12381;51.152;4.172;2022-07-29T07:19:33;20.60;99.30
24254;DHT22;12381;51.152;4.172;2022-07-29T07:21:59;20.60;99.20
24254;DHT22;12381;51.152;4.172;2022-07-29T07:24:25;20.70;99.00
24254;DHT22;12381;51.152;4.172;2022-07-29T07:26:50;20.70;99.20
24254;DHT22;12381;51.152;4.172;2022-07-29T07:29:16;20.90;99.30
24254;DHT22;12381;51.152;4.172;2022-07-29T07:31:42;20.90;98.70
24254;DHT22;12381;51.152;4.172;2022-07-29T07:34:08;21.00;98.40
24254;DHT22;12381;51.152;4.172;2022-07-29T07:36:34;21.00;98.70
24254;DHT22;12381;51.152;4.172;2022-07-29T07:38:59;21.10;98.60
24254;DHT22;12381;51.152;4.172;2022-07-29T07:41:25;21.10;98.60
24254;DHT22;12381;51.152;4.172;2022-07-29T07:43:51;21.20;98.20
24254;DHT22;12381;51.152;4.172;2022-07-29T07:46:16;21.20;98.10
24254;DHT22;12381;51.152;4.172;2022-07-29T07:48:42;21.20;98.30
24254;DHT22;12381;51.152;4.172;2022-07-29T07:51:08;21.20;98.40
24254;DHT22;12381;51.152;4.172;2022-07-29T07:53:34;21.20;98.50
24254;DHT22;12381;51.152;4.172;2022-07-29T07:56:00;21.30;98.60
24254;DHT22;12381;51.152;4.172;2022-07-29T07:58:26;21.30;98.60
24254;DHT22;12381;51.152;4.172;2022-07-29T08:00:51;21.40;98.70
24254;DHT22;12381;51.152;4.172;2022-07-29T08:03:17;21.50;98.30
24254;DHT22;12381;51.152;4.172;2022-07-29T08:05:43;21.40;98.60
24254;DHT22;12381;51.152;4.172;2022-07-29T08:08:09;21.40;98.70
24254;DHT22;12381;51.152;4.172;2022-07-29T08:10:35;21.50;98.60
24254;DHT22;12381;51.152;4.172;2022-07-29T08:13:24;21.50;98.40
24254;DHT22;12381;51.152;4.172;2022-07-29T08:15:50;21.60;98.30
24254;DHT22;12381;51.152;4.172;2022-07-29T08:18:37;21.70;98.00
24254;DHT22;12381;51.152;4.172;2022-07-29T08:21:03;21.70;98.00
24254;DHT22;12381;51.152;4.172;2022-07-29T08:23:29;21.70;97.90
24254;DHT22;12381;51.152;4.172;2022-07-29T08:26:05;21.80;97.90
24254;DHT22;12381;51.152;4.172;2022-07-29T08:28:31;21.80;97.90
24254;DHT22;12381;51.152;4.172;2022-07-29T08:30:57;21.80;97.80
24254;DHT22;12381;51.152;4.172;2022-07-29T08:33:23;21.80;97.90
24254;DHT22;12381;51.152;4.172;2022-07-29T08:35:48;21.90;98.20
24254;DHT22;12381;51.152;4.172;2022-07-29T08:38:15;21.90;97.80
24254;DHT22;12381;51.152;4.172;2022-07-29T08:40:41;22.10;97.90
24254;DHT22;12381;51.152;4.172;2022-07-29T08:43:08;22.20;97.60
24254;DHT22;12381;51.152;4.172;2022-07-29T08:45:43;22.30;97.50
24254;DHT22;12381;51.152;4.172;2022-07-29T08:48:11;22.50;97.40
24254;DHT22;12381;51.152;4.172;2022-07-29T08:50:38;22.50;97.80
24254;DHT22;12381;51.152;4.172;2022-07-29T08:53:05;22.70;96.50
24254;DHT22;12381;51.152;4.172;2022-07-29T08:55:34;22.70;96.60
24254;DHT22;12381;51.152;4.172;2022-07-29T08:58:00;22.80;96.60
24254;DHT22;12381;51.152;4.172;2022-07-29T09:00:26;22.70;96.60
24254;DHT22;12381;51.152;4.172;2022-07-29T09:02:57;22.70;96.70
24254;DHT22;12381;51.152;4.172;2022-07-29T09:05:24;22.60;96.80
24254;DHT22;12381;51.152;4.172;2022-07-29T09:07:51;22.70;96.30
24254;DHT22;12381;51.152;4.172;2022-07-29T09:10:17;22.80;96.00
24254;DHT22;12381;51.152;4.172;2022-07-29T09:12:43;22.80;96.00
24254;DHT22;12381;51.152;4.172;2022-07-29T09:15:09;22.80;96.20
24254;DHT22;12381;51.152;4.172;2022-07-29T09:17:45;22.80;96.00
24254;DHT22;12381;51.152;4.172;2022-07-29T09:20:14;23.00;96.00
24254;DHT22;12381;51.152;4.172;2022-07-29T09:22:41;23.00;95.90
24254;DHT22;12381;51.152;4.172;2022-07-29T09:25:07;23.00;96.20
24254;DHT22;12381;51.152;4.172;2022-07-29T09:27:33;23.10;95.90
24254;DHT22;12381;51.152;4.172;2022-07-29T09:30:06;23.20;95.30
24254;DHT22;12381;51.152;4.172;2022-07-29T09:32:33;23.20;95.80
24254;DHT22;12381;51.152;4.172;2022-07-29T09:35:24;23.30;95.30
24254;DHT22;12381;51.152;4.172;2022-07-29T09:37:50;23.40;95.80
24254;DHT22;12381;51.152;4.172;2022-07-29T09:40:24;23.50;95.60
24254;DHT22;12381;51.152;4.172;2022-07-29T09:42:50;23.70;95.30
24254;DHT22;12381;51.152;4.172;2022-07-29T09:45:30;23.80;95.40
24254;DHT22;12381;51.152;4.172;2022-07-29T09:47:57;23.90;94.90
24254;DHT22;12381;51.152;4.172;2022-07-29T09:50:42;24.00;94.60
24254;DHT22;12381;51.152;4.172;2022-07-29T09:53:09;24.20;94.60
24254;DHT22;12381;51.152;4.172;2022-07-29T09:58:21;24.60;94.00
24254;DHT22;12381;51.152;4.172;2022-07-29T10:00:48;25.00;94.40
24254;DHT22;12381;51.152;4.172;2022-07-29T10:03:16;25.10;93.10
24254;DHT22;12381;51.152;4.172;2022-07-29T10:06:07;25.30;93.30
24254;DHT22;12381;51.152;4.172;2022-07-29T10:08:34;25.70;93.50
24254;DHT22;12381;51.152;4.172;2022-07-29T10:11:13;25.90;92.60
24254;DHT22;12381;51.152;4.172;2022-07-29T10:13:41;26.30;92.90
24254;DHT22;12381;51.152;4.172;2022-07-29T10:16:07;26.50;92.50
24254;DHT22;12381;51.152;4.172;2022-07-29T10:18:33;26.80;92.70
24254;DHT22;12381;51.152;4.172;2022-07-29T10:20:59;26.90;92.50
24254;DHT22;12381;51.152;4.172;2022-07-29T10:23:28;27.20;92.60
24254;DHT22;12381;51.152;4.172;2022-07-29T10:25:54;27.40;91.80
24254;DHT22;12381;51.152;4.172;2022-07-29T10:28:19;27.60;91.80
24254;DHT22;12381;51.152;4.172;2022-07-29T10:30:46;27.70;91.60
24254;DHT22;12381;51.152;4.172;2022-07-29T10:41:56;28.40;90.80
24254;DHT22;12381;51.152;4.172;2022-07-29T10:44:25;28.50;90.10
24254;DHT22;12381;51.152;4.172;2022-07-29T10:46:52;28.50;90.40
24254;DHT22;12381;51.152;4.172;2022-07-29T10:49:26;28.60;89.60
24254;DHT22;12381;51.152;4.172;2022-07-29T10:59:40;28.70;90.00
24254;DHT22;12381;51.152;4.172;2022-07-29T11:07:23;28.70;87.30
24254;DHT22;12381;51.152;4.172;2022-07-29T11:15:04;29.10;86.60
24254;DHT22;12381;51.152;4.172;2022-07-29T11:26:12;29.50;85.00
24254;DHT22;12381;51.152;4.172;2022-07-29T11:31:43;29.70;85.10
24254;DHT22;12381;51.152;4.172;2022-07-29T11:34:20;29.70;86.10
24254;DHT22;12381;51.152;4.172;2022-07-29T11:39:30;29.50;85.00
24254;DHT22;12381;51.152;4.172;2022-07-29T11:45:04;29.60;83.50
24254;DHT22;12381;51.152;4.172;2022-07-29T11:47:32;29.50;84.90
24254;DHT22;12381;51.152;4.172;2022-07-29T11:49:59;29.60;84.10
24254;DHT22;12381;51.152;4.172;2022-07-29T11:52:36;29.60;83.20
24254;DHT22;12381;51.152;4.172;2022-07-29T11:55:05;29.80;83.70
24254;DHT22;12381;51.152;4.172;2022-07-29T11:57:33;29.70;83.90
24254;DHT22;12381;51.152;4.172;2022-07-29T11:59:59;29.50;83.00
24254;DHT22;12381;51.152;4.172;2022-07-29T12:02:38;29.30;83.30
24254;DHT22;12381;51.152;4.172;2022-07-29T12:05:05;29.30;84.10
24254;DHT22;12381;51.152;4.172;2022-07-29T12:07:32;29.50;84.10
24254;DHT22;12381;51.152;4.172;2022-07-29T12:09:58;29.50;83.00
24254;DHT22;12381;51.152;4.172;2022-07-29T12:12:24;29.50;82.40
24254;DHT22;12381;51.152;4.172;2022-07-29T12:14:51;29.60;82.90
24254;DHT22;12381;51.152;4.172;2022-07-29T12:17:30;29.70;82.70
24254;DHT22;12381;51.152;4.172;2022-07-29T12:20:29;29.80;82.20
24254;DHT22;12381;51.152;4.172;2022-07-29T12:22:55;29.70;81.00
24254;DHT22;12381;51.152;4.172;2022-07-29T12:25:23;29.80;81.60
24254;DHT22;12381;51.152;4.172;2022-07-29T12:28:03;29.70;82.80
24254;DHT22;12381;51.152;4.172;2022-07-29T12:30:40;29.80;82.40
24254;DHT22;12381;51.152;4.172;2022-07-29T12:33:22;29.70;82.00
24254;DHT22;12381;51.152;4.172;2022-07-29T12:35:54;29.30;82.20
24254;DHT22;12381;51.152;4.172;2022-07-29T12:38:20;29.20;82.00
24254;DHT22;12381;51.152;4.172;2022-07-29T12:40:47;29.10;82.40
24254;DHT22;12381;51.152;4.172;2022-07-29T12:43:15;29.10;82.90
24254;DHT22;12381;51.152;4.172;2022-07-29T12:45:47;29.00;83.00
24254;DHT22;12381;51.152;4.172;2022-07-29T12:48:14;28.80;83.20
24254;DHT22;12381;51.152;4.172;2022-07-29T12:50:57;28.80;84.40
24254;DHT22;12381;51.152;4.172;2022-07-29T12:53:24;28.80;83.50
24254;DHT22;12381;51.152;4.172;2022-07-29T12:55:51;28.60;83.00
24254;DHT22;12381;51.152;4.172;2022-07-29T13:01:04;28.10;83.90
24254;DHT22;12381;51.152;4.172;2022-07-29T13:09:14;28.40;83.00
24254;DHT22;12381;51.152;4.172;2022-07-29T13:14:11;28.00;83.90
24254;DHT22;12381;51.152;4.172;2022-07-29T13:17:10;27.90;84.70
24254;DHT22;12381;51.152;4.172;2022-07-29T13:19:40;27.60;85.10
24254;DHT22;12381;51.152;4.172;2022-07-29T13:22:07;27.80;85.60
24254;DHT22;12381;51.152;4.172;2022-07-29T13:24:33;28.10;85.00
24254;DHT22;12381;51.152;4.172;2022-07-29T13:26:59;28.30;84.50
24254;DHT22;12381;51.152;4.172;2022-07-29T13:29:25;28.40;84.70
24254;DHT22;12381;51.152;4.172;2022-07-29T13:31:52;28.40;84.10
24254;DHT22;12381;51.152;4.172;2022-07-29T13:34:17;28.30;84.10
24254;DHT22;12381;51.152;4.172;2022-07-29T13:36:45;28.20;84.50
24254;DHT22;12381;51.152;4.172;2022-07-29T13:39:10;28.10;83.90
24254;DHT22;12381;51.152;4.172;2022-07-29T13:41:36;28.20;84.80
24254;DHT22;12381;51.152;4.172;2022-07-29T13:44:02;28.40;82.90
24254;DHT22;12381;51.152;4.172;2022-07-29T13:46:28;28.30;83.50
24254;DHT22;12381;51.152;4.172;2022-07-29T13:48:53;28.00;83.30
24254;DHT22;12381;51.152;4.172;2022-07-29T13:51:19;27.90;84.50
24254;DHT22;12381;51.152;4.172;2022-07-29T13:53:45;28.00;84.90
24254;DHT22;12381;51.152;4.172;2022-07-29T13:56:10;28.10;85.10
24254;DHT22;12381;51.152;4.172;2022-07-29T13:58:36;28.20;85.40
24254;DHT22;12381;51.152;4.172;2022-07-29T14:01:02;28.40;84.00
24254;DHT22;12381;51.152;4.172;2022-07-29T14:03:28;28.60;82.50
24254;DHT22;12381;51.152;4.172;2022-07-29T14:05:53;28.70;84.30
24254;DHT22;12381;51.152;4.172;2022-07-29T14:08:19;28.90;84.20
24254;DHT22;12381;51.152;4.172;2022-07-29T14:10:45;29.10;82.10
24254;DHT22;12381;51.152;4.172;2022-07-29T14:13:10;29.10;81.90
24254;DHT22;12381;51.152;4.172;2022-07-29T14:15:42;29.00;82.50
24254;DHT22;12381;51.152;4.172;2022-07-29T14:18:08;29.00;82.40
24254;DHT22;12381;51.152;4.172;2022-07-29T14:20:33;29.00;82.80
24254;DHT22;12381;51.152;4.172;2022-07-29T14:22:59;29.00;83.10
24254;DHT22;12381;51.152;4.172;2022-07-29T14:25:25;29.10;82.40
24254;DHT22;12381;51.152;4.172;2022-07-29T14:27:50;29.00;82.00
24254;DHT22;12381;51.152;4.172;2022-07-29T14:30:18;29.10;81.60
24254;DHT22;12381;51.152;4.172;2022-07-29T14:32:44;29.10;81.80
24254;DHT22;12381;51.152;4.172;2022-07-29T14:35:09;29.20;81.10
24254;DHT22;12381;51.152;4.172;2022-07-29T14:37:35;29.20;81.20
24254;DHT22;12381;51.152;4.172;2022-07-29T14:40:02;29.10;81.40
24254;DHT22;12381;51.152;4.172;2022-07-29T14:42:29;29.00;82.40
24254;DHT22;12381;51.152;4.172;2022-07-29T14:44:54;29.10;82.00
24254;DHT22;12381;51.152;4.172;2022-07-29T14:47:20;29.10;81.90
24254;DHT22;12381;51.152;4.172;2022-07-29T14:49:47;29.00;82.40
24254;DHT22;12381;51.152;4.172;2022-07-29T14:52:12;29.00;82.20
24254;DHT22;12381;51.152;4.172;2022-07-29T14:54:38;29.10;83.00
24254;DHT22;12381;51.152;4.172;2022-07-29T14:57:03;29.00;82.20
24254;DHT22;12381;51.152;4.172;2022-07-29T14:59:29;28.90;83.00
24254;DHT22;12381;51.152;4.172;2022-07-29T15:01:55;28.80;82.90
24254;DHT22;12381;51.152;4.172;2022-07-29T15:04:21;28.90;83.40
24254;DHT22;12381;51.152;4.172;2022-07-29T15:06:47;28.90;83.80
24254;DHT22;12381;51.152;4.172;2022-07-29T15:09:13;29.10;82.60
24254;DHT22;12381;51.152;4.172;2022-07-29T15:11:40;29.00;81.80
24254;DHT22;12381;51.152;4.172;2022-07-29T15:14:06;28.90;82.30
24254;DHT22;12381;51.152;4.172;2022-07-29T15:16:32;28.70;81.70
24254;DHT22;12381;51.152;4.172;2022-07-29T15:18:58;28.60;82.20
24254;DHT22;12381;51.152;4.172;2022-07-29T15:21:24;28.70;81.10
24254;DHT22;12381;51.152;4.172;2022-07-29T15:23:49;28.70;82.00
24254;DHT22;12381;51.152;4.172;2022-07-29T15:26:15;28.70;82.40
24254;DHT22;12381;51.152;4.172;2022-07-29T15:28:41;28.70;82.80
24254;DHT22;12381;51.152;4.172;2022-07-29T15:31:07;28.70;83.30
24254;DHT22;12381;51.152;4.172;2022-07-29T15:33:32;28.80;83.20
24254;DHT22;12381;51.152;4.172;2022-07-29T15:35:58;28.70;82.80
24254;DHT22;12381;51.152;4.172;2022-07-29T15:38:24;28.50;83.80
24254;DHT22;12381;51.152;4.172;2022-07-29T15:40:49;28.50;83.60
24254;DHT22;12381;51.152;4.172;2022-07-29T15:43:15;28.40;83.60
24254;DHT22;12381;51.152;4.172;2022-07-29T15:45:42;28.50;84.20
24254;DHT22;12381;51.152;4.172;2022-07-29T15:48:28;28.50;83.20
24254;DHT22;12381;51.152;4.172;2022-07-29T15:50:53;28.50;83.50
24254;DHT22;12381;51.152;4.172;2022-07-29T15:53:19;28.30;84.20
24254;DHT22;12381;51.152;4.172;2022-07-29T15:55:44;28.40;83.30
24254;DHT22;12381;51.152;4.172;2022-07-29T15:58:10;28.40;83.40
24254;DHT22;12381;51.152;4.172;2022-07-29T16:00:36;28.40;83.30
24254;DHT22;12381;51.152;4.172;2022-07-29T16:03:01;28.50;84.50
24254;DHT22;12381;51.152;4.172;2022-07-29T16:05:27;28.50;83.70
24254;DHT22;12381;51.152;4.172;2022-07-29T16:07:54;28.50;84.20
24254;DHT22;12381;51.152;4.172;2022-07-29T16:10:20;28.40;83.80
24254;DHT22;12381;51.152;4.172;2022-07-29T16:12:45;28.30;84.30
24254;DHT22;12381;51.152;4.172;2022-07-29T16:15:11;28.30;85.20
24254;DHT22;12381;51.152;4.172;2022-07-29T16:17:37;28.30;84.60
24254;DHT22;12381;51.152;4.172;2022-07-29T16:20:04;28.20;84.00
24254;DHT22;12381;51.152;4.172;2022-07-29T16:22:30;28.10;85.60
24254;DHT22;12381;51.152;4.172;2022-07-29T16:24:56;28.00;85.50
24254;DHT22;12381;51.152;4.172;2022-07-29T16:27:22;27.90;86.40
24254;DHT22;12381;51.152;4.172;2022-07-29T16:29:51;27.90;86.50
24254;DHT22;12381;51.152;4.172;2022-07-29T16:32:17;27.90;85.40
24254;DHT22;12381;51.152;4.172;2022-07-29T16:34:43;27.90;86.00
24254;DHT22;12381;51.152;4.172;2022-07-29T16:37:09;28.00;86.00
24254;DHT22;12381;51.152;4.172;2022-07-29T16:39:34;28.00;86.20
24254;DHT22;12381;51.152;4.172;2022-07-29T16:42:00;28.00;86.00
24254;DHT22;12381;51.152;4.172;2022-07-29T16:44:26;28.00;85.80
24254;DHT22;12381;51.152;4.172;2022-07-29T16:46:52;28.00;85.30
24254;DHT22;12381;51.152;4.172;2022-07-29T16:49:18;27.90;85.70